Weather reports worldwide

Advertisment
Salsburgh, United Kingdom (99024): temperature & dewpoint: 09.11.2018 05:00:00 - 15.11.2018 05:00:00 (GMT)Salsburgh, United Kingdom (99024): wind speed & gusts: 09.11.2018 05:00:00 - 15.11.2018 05:00:00 (GMT)Salsburgh, United Kingdom (99024): wind direction: 09.11.2018 05:00:00 - 15.11.2018 05:00:00 (GMT)Salsburgh, United Kingdom (99024): precipitation: 09.11.2018 05:00:00 - 15.11.2018 05:00:00 (GMT)
Date & Time tt [°C] td [°C] ff [km/h] ff [kn] fx [km/h] fx [kn] dd rr [mm]
15.11.2018 05:00:00 - - - - - - - -
15.11.2018 04:00:00 9,7 9,1 34 18 50 27 S 0,0
15.11.2018 03:00:00 9,8 9,1 28 15 - - S 0,0
15.11.2018 02:00:00 10,1 9,2 26 14 48 26 S 0,0
15.11.2018 01:00:00 10,2 9,0 31 17 65 35 S 0,0
15.11.2018 00:00:00 10,5 9,4 41 22 55 30 S 0,0
14.11.2018 23:00:00 10,5 9,2 37 20 65 35 S 0,0
14.11.2018 22:00:00 10,6 9,3 46 25 76 41 S 0,0
14.11.2018 21:00:00 10,5 9,6 46 25 68 37 S 0,0
14.11.2018 20:00:00 10,5 9,9 52 28 72 39 S 0,0
14.11.2018 19:00:00 10,8 10,2 44 24 59 32 S 0,0
14.11.2018 18:00:00 11,2 10,4 34 18 52 28 S 0,0
14.11.2018 17:00:00 11,3 10,9 41 22 59 32 S 0,0
14.11.2018 16:00:00 11,4 11,0 41 22 63 34 S 0,0
14.11.2018 15:00:00 11,5 11,2 46 25 63 34 S 0,0
14.11.2018 14:00:00 11,6 11,5 39 21 57 31 S 0,4
14.11.2018 13:00:00 11,6 11,5 39 21 63 34 S 1,4
14.11.2018 12:00:00 11,6 11,2 42 23 59 32 S 0,4
14.11.2018 11:00:00 11,5 11,2 42 23 61 33 S 0,6
14.11.2018 10:00:00 11,6 11,3 42 23 59 32 S 0,8
14.11.2018 09:00:00 11,4 11,2 41 22 55 30 S 1,0
14.11.2018 08:00:00 10,5 10,5 39 21 54 29 S 1,4
14.11.2018 07:00:00 9,6 9,5 39 21 57 31 S 0,8
14.11.2018 06:00:00 9,2 9,0 41 22 57 31 S 0,4
14.11.2018 05:00:00 9,2 8,9 37 20 61 33 S 0,4
14.11.2018 04:00:00 9,1 8,7 41 22 54 29 S 0,4
14.11.2018 03:00:00 8,9 8,7 35 19 50 27 S 0,4
14.11.2018 02:00:00 9,7 8,3 29 16 52 28 S 0,0
14.11.2018 01:00:00 9,4 8,7 31 17 - - S 0,0
14.11.2018 00:00:00 9,5 7,5 34 18 48 26 S 0,0
13.11.2018 23:00:00 8,8 8,1 29 16 - - S 0,0
13.11.2018 22:00:00 8,6 7,1 29 16 - - S 0,0
13.11.2018 21:00:00 8,3 7,0 29 16 - - S 0,0
13.11.2018 20:00:00 7,4 6,2 26 14 - - S 0,0
13.11.2018 19:00:00 7,6 5,8 29 16 - - S 0,0
13.11.2018 18:00:00 7,3 5,3 24 13 - - S 0,0
13.11.2018 17:00:00 7,1 5,4 24 13 - - S 0,0
13.11.2018 16:00:00 7,7 6,0 22 12 - - SSW 0,0
13.11.2018 15:00:00 7,8 5,7 29 16 48 26 SSW 0,0
13.11.2018 14:00:00 8,8 6,6 34 18 50 27 SW 0,0
13.11.2018 13:00:00 8,2 6,6 34 18 52 28 SW 0,0
13.11.2018 12:00:00 8,7 6,7 37 20 52 28 WSW 0,0
13.11.2018 11:00:00 8,4 6,6 34 18 52 28 WSW 0,0
13.11.2018 10:00:00 7,9 6,9 34 18 54 29 WSW 0,0
13.11.2018 09:00:00 7,5 7,3 34 18 46 25 WSW 0,0
13.11.2018 08:00:00 7,5 7,5 29 16 46 25 WSW 0,0
13.11.2018 07:00:00 7,7 7,7 34 18 46 25 WSW 0,2
13.11.2018 06:00:00 7,5 7,5 28 15 - - SW 0,6
13.11.2018 05:00:00 7,3 7,3 24 13 - - SW 0,4
13.11.2018 04:00:00 7,0 7,0 22 12 - - SSW 0,2
13.11.2018 03:00:00 6,8 6,8 16 9 - - SSW 0,2
13.11.2018 02:00:00 6,8 6,6 21 11 - - S 0,4
13.11.2018 01:00:00 6,7 6,1 21 11 - - S 0,0
13.11.2018 00:00:00 6,8 5,9 21 11 - - S 0,0
12.11.2018 23:00:00 6,8 6,2 18 10 - - S 0,0
12.11.2018 22:00:00 6,7 6,1 18 10 - - SSE 0,0
12.11.2018 21:00:00 6,8 6,1 21 11 - - S 0,0
12.11.2018 20:00:00 7,0 6,5 26 14 - - S 0,2
12.11.2018 19:00:00 7,2 6,4 26 14 - - S 0,0
12.11.2018 18:00:00 6,6 5,9 21 11 - - S 0,0
12.11.2018 17:00:00 7,1 6,7 28 15 - - S 0,2
12.11.2018 16:00:00 7,7 7,1 28 15 - - S 1,0
12.11.2018 15:00:00 8,2 7,1 31 17 - - S 0,2
12.11.2018 14:00:00 8,3 7,3 24 13 - - S 0,0
12.11.2018 13:00:00 8,8 7,1 29 16 - - S 0,0
12.11.2018 12:00:00 8,2 7,7 26 14 - - S 0,2
12.11.2018 11:00:00 7,9 7,6 28 15 - - S 0,2
12.11.2018 10:00:00 7,5 6,5 34 18 - - S 0,0
12.11.2018 09:00:00 7,4 6,8 29 16 - - SSE 0,0
12.11.2018 08:00:00 7,5 6,7 28 15 - - S 0,0
12.11.2018 07:00:00 7,6 6,7 29 16 - - S 0,0
12.11.2018 06:00:00 7,2 6,6 26 14 - - S 0,0
12.11.2018 05:00:00 6,9 6,2 24 13 - - S 0,0
12.11.2018 04:00:00 7,1 6,4 22 12 - - S 0,0
12.11.2018 03:00:00 6,8 6,1 24 13 - - S 0,0
12.11.2018 02:00:00 7,1 6,4 24 13 - - S 0,0
12.11.2018 01:00:00 7,3 6,3 28 15 - - S 0,0
12.11.2018 00:00:00 7,2 6,6 29 16 48 26 S 0,0
11.11.2018 23:00:00 6,9 6,1 34 18 46 25 S 0,2
11.11.2018 22:00:00 6,5 6,0 28 15 46 25 S 0,0
11.11.2018 21:00:00 6,1 5,1 34 18 - - SSE 0,0
11.11.2018 20:00:00 5,9 5,0 29 16 - - SSE 0,2
11.11.2018 19:00:00 5,0 4,4 24 13 - - S 0,0
11.11.2018 18:00:00 4,7 3,8 16 9 - - SSE 0,0
11.11.2018 17:00:00 5,1 4,4 21 11 - - S 0,0
11.11.2018 16:00:00 6,3 5,4 21 11 - - SSW 0,0
11.11.2018 15:00:00 6,4 5,5 21 11 - - SSW 0,0
11.11.2018 14:00:00 5,9 5,3 16 9 - - S 1,2
11.11.2018 13:00:00 6,1 5,8 15 8 - - SSW 1,0
11.11.2018 12:00:00 7,4 6,6 15 8 - - SSE 0,2
11.11.2018 11:00:00 6,9 5,8 18 10 - - SSE 0,0
11.11.2018 10:00:00 6,7 5,8 15 8 - - SE 0,0
11.11.2018 09:00:00 6,2 5,3 16 9 - - SSE 0,0
11.11.2018 08:00:00 6,2 5,4 18 10 - - SE 0,2
11.11.2018 07:00:00 5,6 5,1 18 10 - - SE 0,0
11.11.2018 06:00:00 5,0 4,4 16 9 - - SE 0,0
11.11.2018 05:00:00 5,5 4,9 13 7 - - ESE 0,0
11.11.2018 04:00:00 5,4 5,0 13 7 - - ESE 0,8
11.11.2018 03:00:00 5,1 4,8 16 9 - - SE 0,2
11.11.2018 02:00:00 4,9 4,6 9 5 - - ESE 0,0
11.11.2018 01:00:00 4,7 4,7 15 8 - - SSE 0,0
11.11.2018 00:00:00 4,5 4,5 5 3 - - S 0,0
10.11.2018 23:00:00 4,8 4,8 8 4 - - S 0,2
10.11.2018 22:00:00 5,3 5,2 8 4 - - S 0,0
10.11.2018 21:00:00 5,0 5,0 8 4 - - S 0,4
10.11.2018 20:00:00 4,9 4,7 8 4 - - SSW 0,0
10.11.2018 19:00:00 4,9 4,6 11 6 - - ESE 0,0
10.11.2018 18:00:00 5,4 5,1 9 5 - - SSE 1,6
10.11.2018 17:00:00 5,6 5,2 11 6 - - SSE 1,2
10.11.2018 16:00:00 6,8 5,7 18 10 - - SSE 0,2
10.11.2018 15:00:00 7,5 5,6 13 7 - - SE 0,0
10.11.2018 14:00:00 7,8 5,4 18 10 - - S 0,0
10.11.2018 13:00:00 8,1 5,0 24 13 - - S 0,0
10.11.2018 12:00:00 8,8 5,5 28 15 - - S 0,0
10.11.2018 11:00:00 7,8 5,3 26 14 - - S 0,0
10.11.2018 10:00:00 6,4 4,6 26 14 - - S 0,0
10.11.2018 09:00:00 5,9 5,0 16 9 - - S 0,0
10.11.2018 08:00:00 6,1 4,9 26 14 - - SSW 0,0
10.11.2018 07:00:00 7,0 5,4 28 15 46 25 SSW 0,0
10.11.2018 06:00:00 7,0 5,6 21 11 - - S 0,0
10.11.2018 05:00:00 6,5 5,3 21 11 - - S 0,0
10.11.2018 04:00:00 6,8 5,7 22 12 - - S 0,0
10.11.2018 03:00:00 7,6 6,3 22 12 - - S 0,0
10.11.2018 02:00:00 8,3 7,8 15 8 - - S 0,0
10.11.2018 01:00:00 8,5 7,9 31 17 59 32 S 0,8
10.11.2018 00:00:00 8,4 7,5 42 23 61 33 S 0,0
09.11.2018 23:00:00 8,2 6,9 44 24 78 42 SSE 0,2
09.11.2018 22:00:00 7,8 6,6 59 32 83 45 SE 0,6
09.11.2018 21:00:00 7,6 6,4 41 22 59 32 SE 1,0
09.11.2018 20:00:00 8,0 6,4 35 19 59 32 SE 0,0
09.11.2018 19:00:00 8,6 5,8 31 17 52 28 SE 0,0
09.11.2018 18:00:00 7,8 6,8 26 14 52 28 ESE 0,2
09.11.2018 17:00:00 8,6 6,0 29 16 54 29 ESE 0,0
09.11.2018 16:00:00 8,2 6,0 26 14 48 26 ESE 0,0
09.11.2018 15:00:00 8,2 5,6 29 16 61 33 ESE 0,0
09.11.2018 14:00:00 8,8 5,9 41 22 59 32 SE 0,0
09.11.2018 13:00:00 8,7 6,0 29 16 54 29 SE 0,0
09.11.2018 12:00:00 8,8 6,2 42 23 68 37 SE 0,0
09.11.2018 11:00:00 8,9 5,8 50 27 68 37 SSE 0,0
09.11.2018 10:00:00 9,1 5,9 28 15 50 27 SE 0,0
09.11.2018 09:00:00 8,5 5,7 29 16 46 25 SSE 0,0
09.11.2018 08:00:00 7,8 5,5 28 15 46 25 SSE 0,0
09.11.2018 07:00:00 7,4 5,4 29 16 52 28 SSE 0,0
09.11.2018 06:00:00 7,5 5,4 39 21 57 31 SSE 0,0
09.11.2018 05:00:00 7,6 5,7 37 20 54 29 SSE 0,0

tt = temperature
td = dewpoint
ff = wind speed
fx = gusts
dd = wind direction
rr = precipitation

Next stations